createdAt,value
2023-04-15T00:00:58.493Z,99503.34
2023-04-15T00:03:25.601Z,99501.53
2023-04-15T00:05:52.784Z,99502.47
2023-04-15T00:08:20.504Z,99507.75
2023-04-15T00:10:47.206Z,99510.41
2023-04-15T00:13:13.814Z,99505.22
2023-04-15T00:15:40.397Z,99500.78
2023-04-15T00:18:08.332Z,99502.56
2023-04-15T00:20:35.515Z,99507.00
2023-04-15T00:23:02.648Z,99512.28
2023-04-15T00:25:29.398Z,99507.00
2023-04-15T00:27:56.033Z,99507.00
2023-04-15T00:30:24.094Z,99505.28
2023-04-15T00:32:50.886Z,99507.13
2023-04-15T00:35:17.656Z,99508.84
2023-04-15T00:37:46.024Z,99508.84
2023-04-15T00:40:13.734Z,99502.78
2023-04-15T00:42:40.867Z,99501.00
2023-04-15T00:45:08.887Z,99500.16
2023-04-15T00:47:36.713Z,99510.72
2023-04-15T00:50:04.046Z,99496.66
2023-04-15T00:52:31.129Z,99500.16
2023-04-15T00:54:57.763Z,99498.44
2023-04-15T00:57:24.484Z,99501.16
2023-04-15T00:59:51.349Z,99500.28
2023-04-15T01:02:18.121Z,99504.63
2023-04-15T01:04:44.909Z,99495.88
2023-04-15T01:07:11.572Z,99494.16
2023-04-15T01:09:38.212Z,99490.66
2023-04-15T01:12:05.128Z,99480.97
2023-04-15T01:14:32.008Z,99487.09
2023-04-15T01:16:58.770Z,99482.75
2023-04-15T01:19:25.373Z,99483.69
2023-04-15T01:21:52.670Z,99478.50
2023-04-15T01:24:19.438Z,99485.47
2023-04-15T01:26:46.847Z,99480.19
2023-04-15T01:29:13.472Z,99481.13
2023-04-15T01:31:40.148Z,99480.25
2023-04-15T01:34:07.035Z,99490.81
2023-04-15T01:36:34.225Z,99493.44
2023-04-15T01:39:01.120Z,99490.81
2023-04-15T01:41:28.060Z,99487.31
2023-04-15T01:43:54.994Z,99490.03
2023-04-15T01:46:21.620Z,99497.97
2023-04-15T01:48:48.301Z,99496.25
2023-04-15T01:51:14.920Z,99498.06
2023-04-15T01:53:41.553Z,99493.62
2023-04-15T01:56:08.360Z,99499.84
2023-04-15T01:58:35.014Z,99500.75
2023-04-15T02:01:03.090Z,99498.06
2023-04-15T02:03:29.966Z,99499.88
2023-04-15T02:05:56.827Z,99491.97
2023-04-15T02:08:23.734Z,99492.81
2023-04-15T02:10:50.582Z,99498.97
2023-04-15T02:13:17.260Z,99493.75
2023-04-15T02:15:50.755Z,99498.09
2023-04-15T02:18:17.505Z,99503.47
2023-04-15T02:20:44.124Z,99500.91
2023-04-15T02:23:11.279Z,99490.37
2023-04-15T02:25:39.117Z,99495.63
2023-04-15T02:28:06.429Z,99498.28
2023-04-15T02:30:33.896Z,99513.31
2023-04-15T02:33:01.098Z,99510.66
2023-04-15T02:35:27.774Z,99507.09
2023-04-15T02:37:54.415Z,99515.94
2023-04-15T02:40:21.041Z,99514.16
2023-04-15T02:42:47.731Z,99506.25
2023-04-15T02:45:14.384Z,99511.59
2023-04-15T02:47:41.669Z,99511.59
2023-04-15T02:50:09.586Z,99515.09
2023-04-15T02:52:36.248Z,99515.19
2023-04-15T02:55:04.445Z,99510.84
2023-04-15T02:57:31.184Z,99505.56
2023-04-15T02:59:57.778Z,99509.91
2023-04-15T03:02:24.735Z,99509.06
2023-04-15T03:04:51.912Z,99492.44
2023-04-15T03:07:18.616Z,99504.72
2023-04-15T03:09:46.107Z,99505.63
2023-04-15T03:12:12.798Z,99496.00
2023-04-15T03:14:39.435Z,99488.09
2023-04-15T03:17:06.038Z,99496.00
2023-04-15T03:19:32.643Z,99497.75
2023-04-15T03:21:59.299Z,99485.50
2023-04-15T03:24:26.300Z,99493.41
2023-04-15T03:26:52.927Z,99494.25
2023-04-15T03:29:19.600Z,99500.47
2023-04-15T03:31:46.237Z,99489.06
2023-04-15T03:34:12.874Z,99493.47
2023-04-15T03:36:39.617Z,99489.97
2023-04-15T03:39:06.274Z,99493.56
2023-04-15T03:41:33.070Z,99503.16
2023-04-15T03:43:59.737Z,99508.38
2023-04-15T03:46:26.802Z,99508.44
2023-04-15T03:48:53.640Z,99511.94
2023-04-15T03:51:20.641Z,99505.81
2023-04-15T03:53:47.339Z,99506.75
2023-04-15T03:56:13.951Z,99497.03
2023-04-15T03:58:40.582Z,99504.09
2023-04-15T04:01:07.292Z,99508.53
2023-04-15T04:03:33.999Z,99496.19
2023-04-15T04:06:00.949Z,99497.22
2023-04-15T04:08:27.618Z,99491.06
2023-04-15T04:10:54.277Z,99496.31
2023-04-15T04:13:21.066Z,99491.94
2023-04-15T04:15:47.753Z,99494.62
2023-04-15T04:18:14.325Z,99499.91
2023-04-15T04:20:41.409Z,99494.62
2023-04-15T04:23:08.054Z,99499.91
2023-04-15T04:25:34.686Z,99499.91
2023-04-15T04:28:01.336Z,99501.69
2023-04-15T04:30:28.076Z,99497.25
2023-04-15T04:32:54.729Z,99492.91
2023-04-15T04:35:21.959Z,99496.41
2023-04-15T04:37:48.701Z,99492.91
2023-04-15T04:40:15.658Z,99489.44
2023-04-15T04:42:42.329Z,99493.78
2023-04-15T04:45:09.324Z,99499.91
2023-04-15T04:47:35.923Z,99486.78
2023-04-15T04:50:02.741Z,99494.78
2023-04-15T04:52:29.357Z,99495.56
2023-04-15T04:54:56.239Z,99503.47
2023-04-15T04:57:23.007Z,99501.78
2023-04-15T04:59:49.597Z,99501.78
2023-04-15T05:02:16.354Z,99498.13
2023-04-15T05:04:43.075Z,99493.06
2023-04-15T05:07:09.744Z,99490.44
2023-04-15T05:09:36.890Z,99498.31
2023-04-15T05:12:06.774Z,99495.66
2023-04-15T05:14:33.511Z,99499.22
2023-04-15T05:17:00.180Z,99502.81
2023-04-15T05:19:26.813Z,99499.19
2023-04-15T05:21:53.436Z,99498.19
2023-04-15T05:24:20.115Z,99498.75
2023-04-15T05:26:47.088Z,99501.91
2023-04-15T05:29:13.689Z,99496.53
2023-04-15T05:31:40.797Z,99498.34
2023-04-15T05:34:07.391Z,99494.28
2023-04-15T05:36:33.998Z,99496.59
2023-04-15T05:39:00.871Z,99497.34
2023-04-15T05:41:27.682Z,99498.19
2023-04-15T05:43:54.270Z,99502.66
2023-04-15T05:46:20.956Z,99503.59
2023-04-15T05:48:47.596Z,99506.34
2023-04-15T05:51:14.287Z,99509.16
2023-04-15T05:53:41.731Z,99508.47
2023-04-15T05:56:08.348Z,99518.38
2023-04-15T05:58:34.922Z,99512.44
2023-04-15T06:01:01.581Z,99512.69
2023-04-15T06:03:28.664Z,99518.16
2023-04-15T06:05:55.552Z,99525.34
2023-04-15T06:08:22.306Z,99524.62
2023-04-15T06:10:48.979Z,99531.88
2023-04-15T06:13:16.881Z,99532.09
2023-04-15T06:15:43.489Z,99532.16
2023-04-15T06:18:10.076Z,99527.91
2023-04-15T06:20:36.816Z,99535.06
2023-04-15T06:23:03.390Z,99537.91
2023-04-15T06:25:29.969Z,99538.97
2023-04-15T06:27:56.608Z,99538.16
2023-04-15T06:30:24.460Z,99544.50
2023-04-15T06:32:51.224Z,99547.22
2023-04-15T06:35:18.036Z,99549.09
2023-04-15T06:37:44.624Z,99551.84
2023-04-15T06:40:11.508Z,99550.09
2023-04-15T06:42:38.423Z,99552.00
2023-04-15T06:45:05.667Z,99548.59
2023-04-15T06:47:32.341Z,99553.09
2023-04-15T06:49:59.030Z,99552.25
2023-04-15T06:52:26.139Z,99551.37
2023-04-15T06:54:52.708Z,99556.78
2023-04-15T06:57:19.290Z,99561.22
2023-04-15T06:59:46.168Z,99555.03
2023-04-15T07:02:12.873Z,99561.28
2023-04-15T07:04:40.391Z,99566.66
2023-04-15T07:07:10.000Z,99569.31
2023-04-15T07:09:36.702Z,99568.50
2023-04-15T07:12:03.475Z,99564.16
2023-04-15T07:14:30.104Z,99566.81
2023-04-15T07:16:57.673Z,99569.41
2023-04-15T07:19:24.427Z,99560.56
2023-04-15T07:21:51.268Z,99566.81
2023-04-15T07:24:19.704Z,99565.97
2023-04-15T07:26:46.593Z,99561.53
2023-04-15T07:29:13.275Z,99558.81
2023-04-15T07:31:40.710Z,99564.09
2023-04-15T07:34:07.321Z,99565.81
2023-04-15T07:36:34.336Z,99568.44
2023-04-15T07:39:03.435Z,99561.28
2023-04-15T07:41:31.032Z,99566.50
2023-04-15T07:43:57.639Z,99566.41
2023-04-15T07:46:27.160Z,99563.78
2023-04-15T07:48:54.143Z,99565.63
2023-04-15T07:51:21.292Z,99563.91
2023-04-15T07:53:49.475Z,99568.28
2023-04-15T07:56:16.306Z,99564.88
2023-04-15T07:58:43.601Z,99563.06
2023-04-15T08:01:10.166Z,99567.50
2023-04-15T08:03:37.162Z,99564.88
2023-04-15T08:06:04.060Z,99572.66
2023-04-15T08:08:31.157Z,99565.56
2023-04-15T08:10:58.572Z,99562.97
2023-04-15T08:13:26.352Z,99570.91
2023-04-15T08:16:14.395Z,99568.44
2023-04-15T08:18:41.286Z,99569.41
2023-04-15T08:21:08.545Z,99573.75
2023-04-15T08:23:35.138Z,99568.50
2023-04-15T08:26:02.166Z,99574.75
2023-04-15T08:28:28.800Z,99580.97
2023-04-15T08:30:55.509Z,99584.47
2023-04-15T08:33:22.088Z,99580.72
2023-04-15T08:35:49.289Z,99581.69
2023-04-15T08:38:15.930Z,99583.38
2023-04-15T08:40:44.250Z,99576.44
2023-04-15T08:43:13.030Z,99583.53
2023-04-15T08:45:39.955Z,99583.53
2023-04-15T08:48:06.802Z,99584.47
2023-04-15T08:50:33.412Z,99589.00
2023-04-15T08:53:00.175Z,99589.84
2023-04-15T08:55:28.650Z,99590.72
2023-04-15T08:57:55.298Z,99594.19
2023-04-15T09:00:22.812Z,99592.25
2023-04-15T09:02:49.550Z,99597.56
2023-04-15T09:05:17.486Z,99593.00
2023-04-15T09:07:44.177Z,99593.00
2023-04-15T09:10:11.232Z,99594.66
2023-04-15T09:12:37.851Z,99605.16
2023-04-15T09:15:04.813Z,99603.34
2023-04-15T09:17:34.793Z,99594.56
2023-04-15T09:20:11.318Z,99599.94
2023-04-15T09:22:38.137Z,99601.81
2023-04-15T09:25:05.323Z,99593.00
2023-04-15T09:27:32.035Z,99601.03
2023-04-15T09:29:58.771Z,99594.91
2023-04-15T09:32:25.731Z,99594.06
2023-04-15T09:34:52.389Z,99596.75
2023-04-15T09:37:31.670Z,99592.41
2023-04-15T09:39:58.791Z,99585.41
2023-04-15T09:42:26.834Z,99594.28
2023-04-15T09:44:53.635Z,99589.00
2023-04-15T09:47:30.588Z,99589.84
2023-04-15T09:49:58.451Z,99595.16
2023-04-15T09:52:25.226Z,99587.28
2023-04-15T09:54:53.726Z,99599.66
2023-04-15T09:57:20.386Z,99597.84
2023-04-15T09:59:46.976Z,99597.84
2023-04-15T10:02:13.779Z,99603.13
2023-04-15T10:04:41.494Z,99602.28
2023-04-15T10:07:12.262Z,99600.59
2023-04-15T10:09:39.230Z,99605.03
2023-04-15T10:12:05.934Z,99606.91
2023-04-15T10:14:34.862Z,99607.81
2023-04-15T10:17:03.565Z,99614.91
2023-04-15T10:19:31.783Z,99615.75
2023-04-15T10:21:59.077Z,99617.53
2023-04-15T10:24:25.812Z,99615.75
2023-04-15T10:26:52.832Z,99618.50
2023-04-15T10:29:19.480Z,99615.00
2023-04-15T10:31:46.429Z,99612.50
2023-04-15T10:34:13.133Z,99619.53
2023-04-15T10:36:39.713Z,99620.44
2023-04-15T10:39:34.525Z,99616.94
2023-04-15T10:42:33.811Z,99617.78
2023-04-15T10:45:00.513Z,99616.09
2023-04-15T10:47:27.325Z,99609.94
2023-04-15T10:50:01.191Z,99619.66
2023-04-15T10:52:28.568Z,99624.09
2023-04-15T10:55:10.508Z,99625.91
2023-04-15T10:57:40.739Z,99635.63
2023-04-15T11:00:16.676Z,99629.44
2023-04-15T11:02:52.082Z,99639.28
2023-04-15T11:05:19.225Z,99631.34
2023-04-15T11:08:00.974Z,99641.16
2023-04-15T11:10:31.119Z,99642.94
2023-04-15T11:12:59.015Z,99641.28
2023-04-15T11:15:33.057Z,99646.59
2023-04-15T11:18:16.547Z,99646.59
2023-04-15T11:20:47.330Z,99652.81
2023-04-15T11:23:28.090Z,99649.31
2023-04-15T11:25:59.422Z,99653.75
2023-04-15T11:28:28.010Z,99648.47
2023-04-15T11:30:55.660Z,99641.44
2023-04-15T11:33:22.772Z,99645.81
2023-04-15T11:35:49.635Z,99652.88
2023-04-15T11:38:16.796Z,99641.44
2023-04-15T11:40:46.194Z,99648.53
2023-04-15T11:43:20.317Z,99638.88
2023-04-15T11:45:56.904Z,99645.88
2023-04-15T11:48:27.792Z,99654.75
2023-04-15T11:51:13.025Z,99647.75
2023-04-15T11:53:47.561Z,99646.91
2023-04-15T11:56:21.944Z,99659.19
2023-04-15T11:58:50.900Z,99662.78
2023-04-15T12:01:17.800Z,99652.25
2023-04-15T12:03:48.403Z,99663.69
2023-04-15T12:06:19.385Z,99668.19
2023-04-15T12:08:55.564Z,99661.12
2023-04-15T12:11:31.336Z,99662.16
2023-04-15T12:13:58.036Z,99659.41
2023-04-15T12:16:24.779Z,99663.84
2023-04-15T12:18:52.410Z,99663.94
2023-04-15T12:21:23.081Z,99659.50
2023-04-15T12:23:53.729Z,99657.72
2023-04-15T12:26:35.099Z,99650.72
2023-04-15T12:29:11.186Z,99655.12
2023-04-15T12:31:39.127Z,99661.34
2023-04-15T12:34:08.019Z,99659.66
2023-04-15T12:36:37.230Z,99660.59
2023-04-15T12:39:04.912Z,99661.44
2023-04-15T12:41:32.152Z,99664.09
2023-04-15T12:43:58.790Z,99663.22
2023-04-15T12:46:25.932Z,99658.00
2023-04-15T12:48:53.370Z,99666.81
2023-04-15T12:51:21.787Z,99668.66
2023-04-15T12:53:49.719Z,99663.38
2023-04-15T12:56:17.066Z,99677.53
2023-04-15T12:58:43.844Z,99675.81
2023-04-15T13:01:11.302Z,99674.97
2023-04-15T13:03:38.133Z,99676.72
2023-04-15T13:06:05.393Z,99681.13
2023-04-15T13:08:32.338Z,99683.81
2023-04-15T13:10:58.967Z,99680.31
2023-04-15T13:13:27.843Z,99688.25
2023-04-15T13:15:54.543Z,99682.09
2023-04-15T13:18:21.336Z,99686.53
2023-04-15T13:20:47.991Z,99695.41
2023-04-15T13:23:15.489Z,99683.13
2023-04-15T13:25:42.548Z,99678.69
2023-04-15T13:28:12.566Z,99684.03
2023-04-15T13:30:39.331Z,99686.69
2023-04-15T13:33:06.344Z,99683.19
2023-04-15T13:35:33.145Z,99692.06
2023-04-15T13:37:59.780Z,99692.06
2023-04-15T13:40:26.377Z,99685.91
2023-04-15T13:42:53.320Z,99694.78
2023-04-15T13:45:19.983Z,99686.00
2023-04-15T13:47:49.218Z,99693.94
2023-04-15T13:50:15.992Z,99693.94
2023-04-15T13:52:42.652Z,99701.00
2023-04-15T13:55:19.715Z,99701.91
2023-04-15T13:57:47.539Z,99694.88
2023-04-15T14:00:14.693Z,99699.31
2023-04-15T14:02:42.411Z,99705.47
2023-04-15T14:05:10.054Z,99700.16
2023-04-15T14:07:36.798Z,99709.03
2023-04-15T14:10:06.603Z,99703.75
2023-04-15T14:12:33.395Z,99705.59
2023-04-15T14:15:00.043Z,99709.97
2023-04-15T14:17:26.772Z,99703.87
2023-04-15T14:19:53.416Z,99704.75
2023-04-15T14:22:20.038Z,99703.03
2023-04-15T14:24:48.841Z,99704.81
2023-04-15T14:27:16.454Z,99705.81
2023-04-15T14:29:43.064Z,99711.91
2023-04-15T14:32:12.300Z,99726.06
2023-04-15T14:34:39.563Z,99720.81
2023-04-15T14:37:06.339Z,99725.25
2023-04-15T14:39:32.992Z,99723.53
2023-04-15T14:41:59.941Z,99723.62
2023-04-15T14:44:26.516Z,99731.56
2023-04-15T14:46:53.230Z,99724.56
2023-04-15T14:49:19.888Z,99721.13
2023-04-15T14:51:46.635Z,99729.06
2023-04-15T14:54:13.257Z,99734.34
2023-04-15T14:56:39.895Z,99736.97
2023-04-15T14:59:06.645Z,99736.97
2023-04-15T15:01:34.180Z,99727.34
2023-04-15T15:04:01.014Z,99737.91
2023-04-15T15:06:27.963Z,99740.63
2023-04-15T15:08:54.579Z,99738.97
2023-04-15T15:11:21.406Z,99734.56
2023-04-15T15:13:48.199Z,99736.34
2023-04-15T15:16:14.901Z,99735.56
2023-04-15T15:18:41.566Z,99748.69
2023-04-15T15:21:08.204Z,99735.56
2023-04-15T15:23:34.886Z,99741.75
2023-04-15T15:26:01.606Z,99750.53
2023-04-15T15:28:28.251Z,99756.00
2023-04-15T15:30:55.099Z,99756.06
2023-04-15T15:33:22.050Z,99764.84
2023-04-15T15:35:48.664Z,99764.84
2023-04-15T15:38:15.676Z,99761.34
2023-04-15T15:40:42.445Z,99775.41
2023-04-15T15:43:09.071Z,99771.13
2023-04-15T15:45:35.841Z,99779.97
2023-04-15T15:48:02.714Z,99782.69
2023-04-15T15:50:29.424Z,99785.34
2023-04-15T15:52:56.150Z,99792.38
2023-04-15T15:55:25.302Z,99796.81
2023-04-15T15:57:51.985Z,99801.22
2023-04-15T16:00:18.722Z,99805.66
2023-04-15T16:05:15.816Z,99803.09
2023-04-15T16:07:42.500Z,99809.31
2023-04-15T16:10:09.496Z,99811.03
2023-04-15T16:12:36.111Z,99813.72
2023-04-15T16:15:03.846Z,99817.28
2023-04-15T16:17:30.563Z,99818.16
2023-04-15T16:20:01.281Z,99829.62
2023-04-15T16:22:28.154Z,99820.00
2023-04-15T16:24:54.853Z,99822.66
2023-04-15T16:27:21.686Z,99812.09
2023-04-15T16:29:48.296Z,99815.66
2023-04-15T16:32:15.077Z,99817.44
2023-04-15T16:34:41.749Z,99814.81
2023-04-15T16:37:08.340Z,99809.53
2023-04-15T16:39:35.048Z,99816.59
2023-04-15T16:42:02.606Z,99812.22
2023-04-15T16:44:29.301Z,99821.06
2023-04-15T16:46:56.635Z,99820.22
2023-04-15T16:49:23.278Z,99832.56
2023-04-15T16:51:49.875Z,99833.50
2023-04-15T16:54:16.453Z,99838.78
2023-04-15T16:56:43.049Z,99841.47
2023-04-15T16:59:09.672Z,99844.06
2023-04-15T17:01:39.599Z,99850.25
2023-04-15T17:04:06.588Z,99858.16
2023-04-15T17:06:33.274Z,99868.72
2023-04-15T17:08:59.920Z,99859.19
2023-04-15T17:11:27.950Z,99864.47
2023-04-15T17:13:54.604Z,99867.19
2023-04-15T17:16:21.373Z,99864.53
2023-04-15T17:18:50.222Z,99876.84
2023-04-15T17:21:17.565Z,99881.28
2023-04-15T17:23:44.239Z,99874.28
2023-04-15T17:26:11.129Z,99879.56
2023-04-15T17:28:38.047Z,99884.94
2023-04-15T17:31:04.940Z,99903.41
2023-04-15T17:33:55.896Z,99892.84
2023-04-15T17:36:18.308Z,99899.94
2023-04-15T17:38:45.528Z,99900.84
2023-04-15T17:41:12.225Z,99897.31
2023-04-15T17:43:39.018Z,99901.84
2023-04-15T17:46:06.947Z,99900.03
2023-04-15T17:48:34.111Z,99907.97
2023-04-15T17:51:03.808Z,99911.53
2023-04-15T17:53:30.478Z,99913.31
2023-04-15T17:55:57.778Z,99915.09
2023-04-15T17:58:24.472Z,99918.66
2023-04-15T18:00:51.125Z,99919.56
2023-04-15T18:03:17.884Z,99916.94
2023-04-15T18:05:44.654Z,99924.84
2023-04-15T18:08:11.543Z,99934.56
2023-04-15T18:10:38.328Z,99936.34
2023-04-15T18:13:05.081Z,99941.63
2023-04-15T18:15:31.776Z,99946.06
2023-04-15T18:17:58.997Z,99949.53
2023-04-15T18:20:25.640Z,99942.56
2023-04-15T18:22:52.675Z,99953.16
2023-04-15T18:25:19.334Z,99941.75
2023-04-15T18:27:46.045Z,99950.59
2023-04-15T18:30:13.064Z,99958.53
2023-04-15T18:32:39.740Z,99969.06
2023-04-15T18:35:06.789Z,99964.72
2023-04-15T18:37:33.432Z,99970.00
2023-04-15T18:40:00.117Z,99971.72
2023-04-15T18:42:26.799Z,99982.34
2023-04-15T18:44:53.832Z,99983.28
2023-04-15T18:47:20.509Z,99990.31
2023-04-15T18:49:47.106Z,99987.69
2023-04-15T18:52:13.740Z,99994.75
2023-04-15T18:54:40.403Z,100002.66
2023-04-15T18:57:07.054Z,100003.50
2023-04-15T18:59:34.188Z,100007.94
2023-04-15T19:02:01.433Z,100016.78
2023-04-15T19:04:30.974Z,100016.00
2023-04-15T19:06:59.091Z,100020.34
2023-04-15T19:09:26.029Z,100023.00
2023-04-15T19:11:52.722Z,100023.06
2023-04-15T19:14:19.450Z,100023.06
2023-04-15T19:16:46.114Z,100037.13
2023-04-15T19:19:16.589Z,100031.03
2023-04-15T19:21:43.361Z,100044.22
2023-04-15T19:24:10.050Z,100050.44
2023-04-15T19:26:37.016Z,100049.56
2023-04-15T19:29:03.933Z,100049.56
2023-04-15T19:31:30.860Z,100054.84
2023-04-15T19:34:00.160Z,100055.78
2023-04-15T19:36:28.502Z,100053.16
2023-04-15T19:38:55.273Z,100067.25
2023-04-15T19:41:24.417Z,100073.44
2023-04-15T19:43:51.337Z,100072.59
2023-04-15T19:46:18.163Z,100069.94
2023-04-15T19:48:44.792Z,100073.50
2023-04-15T19:51:11.693Z,100073.50
2023-04-15T19:53:38.313Z,100070.00
2023-04-15T19:56:05.060Z,100070.94
2023-04-15T19:58:32.474Z,100077.06
2023-04-15T20:01:00.492Z,100071.84
2023-04-15T20:03:27.166Z,100074.47
2023-04-15T20:05:53.902Z,100081.53
2023-04-15T20:08:20.728Z,100083.31
2023-04-15T20:10:47.380Z,100080.75
2023-04-15T20:13:13.973Z,100093.03
2023-04-15T20:15:40.623Z,100086.09
2023-04-15T20:18:07.220Z,100086.09
2023-04-15T20:20:34.574Z,100089.59
2023-04-15T20:23:01.147Z,100087.81
2023-04-15T20:25:27.830Z,100090.47
2023-04-15T20:27:54.516Z,100090.53
2023-04-15T20:30:21.201Z,100090.56
2023-04-15T20:32:47.924Z,100087.91
2023-04-15T20:35:14.577Z,100096.69
2023-04-15T20:37:43.148Z,100084.44
2023-04-15T20:40:10.297Z,100090.56
2023-04-15T20:42:36.972Z,100098.47
2023-04-15T20:45:03.948Z,100105.53
2023-04-15T20:47:30.756Z,100104.66
2023-04-15T20:49:57.520Z,100105.53
2023-04-15T20:52:24.204Z,100105.56
2023-04-15T20:54:52.107Z,100107.34
2023-04-15T20:57:20.169Z,100104.72
2023-04-15T20:59:46.857Z,100100.34
2023-04-15T21:02:13.556Z,100107.34
2023-04-15T21:04:40.334Z,100111.78
2023-04-15T21:07:06.941Z,100120.56
2023-04-15T21:09:33.617Z,100120.56
2023-04-15T21:12:02.129Z,100122.37
2023-04-15T21:14:29.220Z,100131.16
2023-04-15T21:16:57.212Z,100129.44
2023-04-15T21:19:23.877Z,100134.72
2023-04-15T21:21:50.531Z,100137.41
2023-04-15T21:24:17.196Z,100140.91
2023-04-15T21:26:43.852Z,100141.84
2023-04-15T21:29:11.869Z,100141.84
2023-04-15T21:31:38.913Z,100147.97
2023-04-15T21:34:05.763Z,100148.94
2023-04-15T21:36:32.627Z,100155.06
2023-04-15T21:38:59.637Z,100157.72
2023-04-15T21:41:26.734Z,100155.13
2023-04-15T21:43:53.651Z,100149.00
2023-04-15T21:46:24.572Z,100164.78
2023-04-15T21:48:55.113Z,100164.78
2023-04-15T21:51:21.867Z,100166.56
2023-04-15T21:53:48.579Z,100168.34
2023-04-15T21:56:15.241Z,100169.25
2023-04-15T21:58:41.976Z,100170.19
2023-04-15T22:01:08.617Z,100170.19
2023-04-15T22:03:35.521Z,100164.03
2023-04-15T22:06:03.089Z,100172.84
2023-04-15T22:08:32.088Z,100170.22
2023-04-15T22:11:00.643Z,100174.62
2023-04-15T22:13:27.276Z,100173.72
2023-04-15T22:15:53.914Z,100177.28
2023-04-15T22:18:20.648Z,100178.12
2023-04-15T22:20:47.233Z,100177.28
2023-04-15T22:23:17.449Z,100182.63
2023-04-15T22:25:44.263Z,100181.75
2023-04-15T22:28:10.962Z,100187.03
2023-04-15T22:30:41.409Z,100189.69
2023-04-15T22:33:08.402Z,100187.03
2023-04-15T22:35:36.207Z,100188.81
2023-04-15T22:38:03.656Z,100181.78
2023-04-15T22:40:30.324Z,100186.19
2023-04-15T22:42:56.991Z,100182.69
2023-04-15T22:45:23.649Z,100186.22
2023-04-15T22:47:50.585Z,100189.78
2023-04-15T22:50:17.259Z,100182.72
2023-04-15T22:52:46.204Z,100191.56
2023-04-15T22:55:12.977Z,100196.84
2023-04-15T22:57:39.596Z,100193.34
2023-04-15T23:00:07.468Z,100197.69
2023-04-15T23:02:34.955Z,100190.78
2023-04-15T23:05:04.549Z,100191.62
2023-04-15T23:07:39.840Z,100191.66
2023-04-15T23:10:08.036Z,100195.16
2023-04-15T23:12:34.887Z,100196.03
2023-04-15T23:15:01.602Z,100189.87
2023-04-15T23:17:28.246Z,100193.44
2023-04-15T23:19:54.873Z,100196.94
2023-04-15T23:22:21.517Z,100190.81
2023-04-15T23:24:48.166Z,100192.66
2023-04-15T23:27:14.739Z,100194.38
2023-04-15T23:29:41.675Z,100193.50
2023-04-15T23:32:08.305Z,100192.66
2023-04-15T23:34:34.909Z,100194.47
2023-04-15T23:37:01.523Z,100206.69
2023-04-15T23:39:28.189Z,100204.13
2023-04-15T23:41:54.808Z,100198.00
2023-04-15T23:44:21.553Z,100202.38
2023-04-15T23:46:48.254Z,100211.22
2023-04-15T23:49:14.957Z,100210.34
2023-04-15T23:51:41.562Z,100218.22
2023-04-15T23:54:08.153Z,100213.84
2023-04-15T23:56:34.758Z,100213.06
2023-04-15T23:59:02.736Z,100209.56
